Time;durP1;ratioP1;P1;durP2;ratioP2;P2;SDS_P1;SDS_P2;PMS_P1;PMS_P2;Temp;Humidity;BMP_temperature;BMP_pressure;BME280_temperature;BME280_humidity;BME280_pressure;Samples;Min_cycle;Max_cycle;Signal;HPM_P1;HPM_P2
2023/11/20 00:01:24;;;;;;;4.97;1.30;;;11.20;96.90;;;;;;6268724;22;20015;-79
2023/11/20 00:03:50;;;;;;;3.45;1.23;;;11.20;96.10;;;;;;6243075;22;20022;-79
2023/11/20 00:06:18;;;;;;;5.38;1.60;;;11.20;96.40;;;;;;6294189;22;20023;-79
2023/11/20 00:08:45;;;;;;;2.80;1.40;;;11.20;96.80;;;;;;6295450;22;20023;-79
2023/11/20 00:11:15;;;;;;;2.97;0.80;;;11.20;96.10;;;;;;6267965;22;20055;-79
2023/11/20 00:13:43;;;;;;;3.05;1.00;;;11.20;96.70;;;;;;6244771;22;20022;-79
2023/11/20 00:16:11;;;;;;;4.65;1.30;;;11.20;99.90;;;;;;6243086;22;20023;-79
2023/11/20 00:18:39;;;;;;;3.45;1.50;;;11.20;97.10;;;;;;6219606;22;20015;-79
2023/11/20 00:21:06;;;;;;;5.20;1.55;;;11.20;95.80;;;;;;6294842;22;20030;-79
2023/11/20 00:23:32;;;;;;;3.15;1.00;;;11.20;93.60;;;;;;6267695;22;20023;-79
2023/11/20 00:25:59;;;;;;;5.47;1.92;;;11.20;93.30;;;;;;6217656;22;20027;-80
2023/11/20 00:28:26;;;;;;;3.28;1.38;;;11.20;91.70;;;;;;6296066;22;20023;-79
2023/11/20 00:30:53;;;;;;;4.45;1.00;;;11.20;91.20;;;;;;6295695;22;20023;-79
2023/11/20 00:33:19;;;;;;;4.85;1.23;;;11.20;90.50;;;;;;6295220;22;20193;-80
2023/11/20 00:35:46;;;;;;;2.95;1.08;;;11.10;88.50;;;;;;6293491;22;20114;-80
2023/11/20 00:38:13;;;;;;;2.75;1.40;;;11.10;87.80;;;;;;6267859;22;20380;-80
2023/11/20 00:40:41;;;;;;;5.40;1.02;;;11.00;87.70;;;;;;6217101;22;20081;-80
2023/11/20 00:43:08;;;;;;;3.17;1.20;;;10.90;88.90;;;;;;6268856;22;20098;-80
2023/11/20 00:45:34;;;;;;;2.70;1.00;;;10.90;89.60;;;;;;6242709;22;20179;-80
2023/11/20 00:48:02;;;;;;;2.15;1.05;;;10.90;90.30;;;;;;6269091;22;20050;-80
2023/11/20 00:50:29;;;;;;;3.55;0.73;;;10.80;91.30;;;;;;6242491;22;20057;-80
2023/11/20 00:52:55;;;;;;;2.35;1.10;;;10.80;98.30;;;;;;6268828;22;20019;-79
2023/11/20 00:55:22;;;;;;;2.58;0.85;;;10.80;93.50;;;;;;6267955;22;20027;-80
2023/11/20 00:57:49;;;;;;;4.50;1.48;;;10.70;94.90;;;;;;6243666;22;20019;-79
2023/11/20 01:00:18;;;;;;;5.45;1.45;;;10.70;95.60;;;;;;6296151;22;20023;-78
2023/11/20 01:02:45;;;;;;;3.05;0.95;;;10.70;96.70;;;;;;6270079;22;20072;-77
2023/11/20 01:05:12;;;;;;;3.55;0.98;;;10.70;97.40;;;;;;6267090;22;20081;-79
2023/11/20 01:07:39;;;;;;;3.33;0.85;;;10.70;98.90;;;;;;6295541;22;20020;-79
2023/11/20 01:10:07;;;;;;;5.05;1.38;;;10.60;99.50;;;;;;6268044;22;20478;-79
2023/11/20 01:12:33;;;;;;;2.33;0.95;;;10.50;99.90;;;;;;6243925;22;20022;-79
2023/11/20 01:15:00;;;;;;;6.28;1.27;;;10.50;98.90;;;;;;6270194;22;20080;-79
2023/11/20 01:17:28;;;;;;;4.38;1.38;;;10.50;98.30;;;;;;6272220;22;20070;-79
2023/11/20 01:19:55;;;;;;;5.05;2.15;;;10.50;97.60;;;;;;6296939;22;20085;-80
2023/11/20 01:22:22;;;;;;;2.67;0.93;;;10.50;96.90;;;;;;6298283;22;20529;-79
2023/11/20 01:24:50;;;;;;;4.95;1.63;;;10.50;97.10;;;;;;6270541;22;20019;-79
2023/11/20 01:27:16;;;;;;;3.20;1.00;;;10.40;97.40;;;;;;6271270;22;20015;-80
2023/11/20 01:29:44;;;;;;;3.47;1.23;;;10.40;97.70;;;;;;6270998;22;20102;-79
2023/11/20 01:32:10;;;;;;;2.63;1.05;;;10.30;99.90;;;;;;6271423;22;20050;-79
2023/11/20 01:34:37;;;;;;;1.58;0.50;;;10.40;99.90;;;;;;6245423;22;20019;-80
2023/11/20 01:37:04;;;;;;;3.08;1.05;;;10.30;99.90;;;;;;6298102;22;20050;-80
2023/11/20 01:39:31;;;;;;;3.63;1.20;;;10.30;99.90;;;;;;6270520;22;20103;-79
2023/11/20 01:41:58;;;;;;;1.25;0.63;;;10.30;99.90;;;;;;6245424;22;20068;-79
2023/11/20 01:44:25;;;;;;;2.60;0.98;;;10.30;99.90;;;;;;6297724;22;20092;-79
2023/11/20 01:46:52;;;;;;;2.03;0.70;;;10.30;99.90;;;;;;6271262;22;20023;-80
2023/11/20 01:49:20;;;;;;;2.30;0.93;;;10.30;99.90;;;;;;6270283;22;20026;-79
2023/11/20 01:51:47;;;;;;;1.75;0.60;;;10.20;99.90;;;;;;6218395;22;20446;-80
2023/11/20 01:54:14;;;;;;;4.35;0.77;;;10.20;99.90;;;;;;6269738;22;20121;-79
2023/11/20 01:56:41;;;;;;;1.38;0.63;;;10.20;99.90;;;;;;6218787;22;20023;-80
2023/11/20 01:59:08;;;;;;;1.17;0.52;;;10.10;99.90;;;;;;6270549;22;20019;-80
2023/11/20 02:01:35;;;;;;;0.73;0.43;;;10.10;99.90;;;;;;6244409;22;20019;-79
2023/11/20 02:04:03;;;;;;;2.03;0.60;;;10.10;99.90;;;;;;6245075;22;20677;-79
2023/11/20 02:06:30;;;;;;;0.68;0.40;;;10.10;99.90;;;;;;6267909;22;20027;-79
2023/11/20 02:08:57;;;;;;;1.85;0.50;;;10.00;99.90;;;;;;6219689;22;20016;-79
2023/11/20 02:11:23;;;;;;;0.98;0.50;;;10.00;99.90;;;;;;6296384;22;20367;-79
2023/11/20 02:13:50;;;;;;;2.63;0.80;;;9.90;99.90;;;;;;6243319;22;20019;-78
2023/11/20 02:16:17;;;;;;;1.00;0.50;;;9.90;99.90;;;;;;6241388;22;20019;-79
2023/11/20 02:18:44;;;;;;;2.17;0.75;;;9.90;99.90;;;;;;6244517;22;20075;-79
2023/11/20 02:21:11;;;;;;;1.38;0.52;;;9.80;99.90;;;;;;6295192;22;20015;-79
2023/11/20 02:23:37;;;;;;;1.42;1.02;;;9.80;99.90;;;;;;6269726;22;20386;-79
2023/11/20 02:26:19;;;;;;;0.43;0.32;;;9.80;99.90;;;;;;6268997;22;20019;-79
2023/11/20 02:29:03;;;;;;;1.55;0.60;;;9.70;99.90;;;;;;6296609;22;20031;-79
2023/11/20 02:31:30;;;;;;;2.88;1.05;;;9.70;99.90;;;;;;6272703;22;20479;-80
2023/11/20 02:34:00;;;;;;;2.55;0.60;;;9.70;99.90;;;;;;6245761;22;20020;-80
2023/11/20 02:36:27;;;;;;;2.25;1.25;;;9.70;99.90;;;;;;6269101;22;20027;-79
2023/11/20 02:38:54;;;;;;;2.60;0.70;;;9.70;99.90;;;;;;6245702;22;20046;-79
2023/11/20 02:41:20;;;;;;;1.63;0.70;;;9.60;99.90;;;;;;6245568;22;20015;-79
2023/11/20 02:43:47;;;;;;;1.05;0.50;;;9.60;99.90;;;;;;6297428;22;20038;-79
2023/11/20 02:46:14;;;;;;;1.25;0.60;;;9.60;99.90;;;;;;6270630;22;20625;-79
2023/11/20 02:48:41;;;;;;;1.27;0.52;;;9.50;99.90;;;;;;6271493;22;20027;-79
2023/11/20 02:51:08;;;;;;;0.98;0.50;;;9.50;99.90;;;;;;6261926;22;20027;-79
2023/11/20 02:53:35;;;;;;;2.00;0.45;;;9.50;1.00;;;;;;6272618;22;20098;-79
2023/11/20 02:56:02;;;;;;;0.95;0.43;;;9.50;1.00;;;;;;6299774;22;20025;-79
2023/11/20 02:58:29;;;;;;;2.50;0.57;;;9.40;1.00;;;;;;6300935;22;20076;-79
2023/11/20 03:00:56;;;;;;;1.80;0.75;;;9.40;1.00;;;;;;6273459;22;20080;-79
2023/11/20 03:03:23;;;;;;;0.82;0.50;;;9.40;1.00;;;;;;6248530;22;20019;-79
2023/11/20 03:05:50;;;;;;;1.25;0.60;;;9.40;1.00;;;;;;6300863;22;20285;-79
2023/11/20 03:08:16;;;;;;;1.35;0.63;;;9.30;1.00;;;;;;6271203;22;20023;-79
2023/11/20 03:10:43;;;;;;;0.90;0.50;;;9.40;99.90;;;;;;6300528;22;20023;-79
2023/11/20 03:13:11;;;;;;;1.05;0.55;;;9.40;99.90;;;;;;6273052;22;20077;-79
2023/11/20 03:15:38;;;;;;;0.95;0.57;;;9.40;99.90;;;;;;6248187;22;20027;-79
2023/11/20 03:18:05;;;;;;;3.50;1.10;;;9.40;99.90;;;;;;6300453;22;20015;-79
2023/11/20 03:20:32;;;;;;;2.53;0.50;;;9.30;99.90;;;;;;6273264;22;20050;-80
2023/11/20 03:22:59;;;;;;;2.20;0.60;;;9.40;99.90;;;;;;6245723;22;20084;-79
2023/11/20 03:25:26;;;;;;;1.92;0.63;;;9.30;99.90;;;;;;6300530;22;20096;-79
2023/11/20 03:27:54;;;;;;;2.80;0.80;;;9.40;99.90;;;;;;6299981;22;20080;-79
2023/11/20 03:30:22;;;;;;;2.28;0.88;;;9.40;99.90;;;;;;6248752;22;20461;-79
2023/11/20 03:32:49;;;;;;;2.40;0.77;;;9.40;99.90;;;;;;6273044;22;20449;-80
2023/11/20 03:35:16;;;;;;;2.63;0.82;;;9.40;99.90;;;;;;6247759;22;20043;-79
2023/11/20 03:37:43;;;;;;;1.48;0.50;;;9.40;99.90;;;;;;6298603;22;20027;-79
2023/11/20 03:40:11;;;;;;;1.75;0.65;;;9.40;99.90;;;;;;6272571;22;20019;-78
2023/11/20 03:42:38;;;;;;;1.35;0.35;;;9.40;99.90;;;;;;6273273;22;20023;-79
2023/11/20 03:45:05;;;;;;;2.80;0.95;;;9.30;99.90;;;;;;6222136;22;20019;-78
2023/11/20 03:47:32;;;;;;;1.95;0.43;;;9.30;99.90;;;;;;6247254;22;20027;-79
2023/11/20 03:49:59;;;;;;;1.45;0.50;;;9.20;99.90;;;;;;6272900;22;20030;-79
2023/11/20 03:52:26;;;;;;;1.33;0.60;;;9.20;99.90;;;;;;6271115;22;20060;-79
2023/11/20 03:54:53;;;;;;;0.88;0.50;;;9.20;99.90;;;;;;6299574;22;20027;-79
2023/11/20 03:57:20;;;;;;;1.80;0.55;;;9.10;99.90;;;;;;6247493;22;20054;-79
2023/11/20 03:59:47;;;;;;;2.13;0.50;;;9.10;99.90;;;;;;6246867;22;20019;-79
2023/11/20 04:02:16;;;;;;;2.13;0.50;;;9.00;1.00;;;;;;6246988;22;20666;-79
2023/11/20 04:04:44;;;;;;;0.52;0.40;;;9.00;1.00;;;;;;6247822;22;20019;-78
2023/11/20 04:07:11;;;;;;;1.77;0.77;;;9.00;1.00;;;;;;6246472;22;20036;-79
2023/11/20 04:09:38;;;;;;;1.73;0.73;;;8.90;1.00;;;;;;6271871;22;20019;-79
2023/11/20 04:12:06;;;;;;;1.15;0.43;;;8.90;1.00;;;;;;6222690;22;20025;-79
2023/11/20 04:14:32;;;;;;;1.13;0.60;;;8.90;1.00;;;;;;6300089;22;20073;-79
2023/11/20 04:16:59;;;;;;;1.00;0.50;;;8.90;4.90;;;;;;6247141;22;20015;-79
2023/11/20 04:19:26;;;;;;;1.45;0.40;;;8.80;40.70;;;;;;6247771;22;20056;-78
2023/11/20 04:21:54;;;;;;;1.50;0.60;;;8.80;76.50;;;;;;6246793;22;20023;-79
2023/11/20 04:24:21;;;;;;;1.20;0.52;;;8.80;99.90;;;;;;6271982;22;20019;-79
2023/11/20 04:26:48;;;;;;;0.98;0.35;;;8.70;99.90;;;;;;6247786;22;20023;-80
2023/11/20 04:29:15;;;;;;;1.75;0.60;;;8.70;99.90;;;;;;6221546;22;20041;-79
2023/11/20 04:31:42;;;;;;;1.05;0.40;;;8.70;99.90;;;;;;6246789;22;20019;-79
2023/11/20 04:34:09;;;;;;;1.40;0.40;;;8.70;99.90;;;;;;6247352;22;20039;-80
2023/11/20 04:36:36;;;;;;;1.55;0.88;;;8.70;99.90;;;;;;6245903;22;20461;-80
2023/11/20 04:39:03;;;;;;;2.63;1.05;;;8.60;99.90;;;;;;6272820;22;20026;-80
2023/11/20 04:41:31;;;;;;;0.90;0.65;;;8.60;99.90;;;;;;6221949;22;20457;-79
2023/11/20 04:43:58;;;;;;;2.55;0.80;;;8.60;99.90;;;;;;6247921;22;20030;-79
2023/11/20 04:46:25;;;;;;;1.92;0.65;;;8.60;99.90;;;;;;6246941;22;20023;-79
2023/11/20 04:48:52;;;;;;;1.50;0.30;;;8.60;99.90;;;;;;6272807;22;20037;-78
2023/11/20 04:51:22;;;;;;;1.95;0.52;;;8.60;99.90;;;;;;6271675;22;20122;-79
2023/11/20 04:53:49;;;;;;;1.38;0.55;;;8.60;99.90;;;;;;6299007;22;20026;-79
2023/11/20 04:56:16;;;;;;;1.23;0.50;;;8.60;99.90;;;;;;6272594;22;20670;-79
2023/11/20 04:58:46;;;;;;;1.58;0.50;;;8.60;99.90;;;;;;6299679;22;20571;-79
2023/11/20 05:01:13;;;;;;;1.92;0.63;;;8.60;99.90;;;;;;6247017;22;20516;-79
2023/11/20 05:03:42;;;;;;;0.47;0.20;;;8.60;99.90;;;;;;6247921;22;20019;-79
2023/11/20 05:06:13;;;;;;;1.60;0.57;;;8.50;99.90;;;;;;6224146;22;20046;-79
2023/11/20 05:08:40;;;;;;;0.50;0.30;;;8.50;99.90;;;;;;6272094;22;20084;-79
2023/11/20 05:11:07;;;;;;;2.60;0.60;;;8.50;99.90;;;;;;6272615;22;20082;-79
2023/11/20 05:13:34;;;;;;;0.73;0.30;;;8.50;99.90;;;;;;6247162;22;20016;-79
2023/11/20 05:16:01;;;;;;;0.85;0.40;;;8.50;99.90;;;;;;6221725;22;20058;-79
2023/11/20 05:18:28;;;;;;;1.08;0.40;;;8.50;99.90;;;;;;6272746;22;20019;-79
2023/11/20 05:20:54;;;;;;;1.45;0.60;;;8.50;1.00;;;;;;6247108;22;20383;-79
2023/11/20 05:23:21;;;;;;;0.90;0.50;;;8.50;99.90;;;;;;6271257;22;20398;-79
2023/11/20 05:25:48;;;;;;;2.08;0.75;;;8.50;1.00;;;;;;6272766;22;20041;-80
2023/11/20 05:28:15;;;;;;;2.85;0.75;;;8.50;99.90;;;;;;6272620;22;20030;-79
2023/11/20 05:30:42;;;;;;;1.33;0.50;;;8.50;99.90;;;;;;6300004;22;20027;-79
2023/11/20 05:33:11;;;;;;;2.35;0.60;;;8.50;99.90;;;;;;6272547;22;20094;-79
2023/11/20 05:35:38;;;;;;;0.95;0.60;;;8.50;99.90;;;;;;6272865;22;20080;-80
2023/11/20 05:38:05;;;;;;;0.85;0.40;;;8.50;99.90;;;;;;6297018;22;20018;-79
2023/11/20 05:40:32;;;;;;;0.30;0.30;;;8.50;99.90;;;;;;6272212;22;20101;-79
2023/11/20 05:43:00;;;;;;;1.10;0.50;;;8.50;99.90;;;;;;6221239;22;20034;-81
2023/11/20 05:45:27;;;;;;;1.60;0.35;;;8.50;1.00;;;;;;6271860;22;20051;-80
2023/11/20 05:47:54;;;;;;;1.02;0.55;;;8.50;1.00;;;;;;6245119;22;20543;-80
2023/11/20 05:50:21;;;;;;;1.50;0.60;;;8.50;1.00;;;;;;6243935;22;20106;-80
2023/11/20 05:52:48;;;;;;;0.75;0.35;;;8.40;1.00;;;;;;6294258;22;20094;-80
2023/11/20 05:55:15;;;;;;;0.35;0.30;;;8.40;1.00;;;;;;6243637;22;20023;-79
2023/11/20 05:57:41;;;;;;;1.48;0.70;;;8.40;1.00;;;;;;6243731;22;20098;-80
2023/11/20 06:00:10;;;;;;;0.30;0.30;;;8.40;20.80;;;;;;6296373;22;20043;-80
2023/11/20 06:02:37;;;;;;;0.75;0.40;;;8.50;40.80;;;;;;6244567;22;20023;-80
2023/11/20 06:05:04;;;;;;;1.17;0.50;;;8.50;14.80;;;;;;6268848;22;20023;-80
2023/11/20 06:07:35;;;;;;;0.43;0.22;;;8.50;1.00;;;;;;6268923;22;20095;-79
2023/11/20 06:10:02;;;;;;;0.40;0.30;;;8.60;1.00;;;;;;6271337;22;20011;-78
2023/11/20 06:12:30;;;;;;;0.30;0.30;;;8.60;1.00;;;;;;6298510;22;20024;-79
2023/11/20 06:14:56;;;;;;;1.73;0.60;;;8.60;99.90;;;;;;6299499;22;20015;-78
2023/11/20 06:17:24;;;;;;;0.82;0.52;;;8.60;99.90;;;;;;6298890;22;20047;-80
2023/11/20 06:19:51;;;;;;;1.92;0.50;;;8.60;99.90;;;;;;6247226;22;20457;-79
2023/11/20 06:22:18;;;;;;;0.57;0.40;;;8.70;99.90;;;;;;6220250;22;20019;-80
2023/11/20 06:24:45;;;;;;;1.20;0.40;;;8.70;99.90;;;;;;6268226;22;20749;-79
2023/11/20 06:27:12;;;;;;;0.55;0.38;;;8.80;99.90;;;;;;6218201;22;20019;-80
2023/11/20 06:29:39;;;;;;;1.08;0.68;;;8.80;99.90;;;;;;6295686;22;20069;-80
2023/11/20 06:32:09;;;;;;;0.93;0.50;;;8.80;99.90;;;;;;6268574;22;20038;-79
2023/11/20 06:34:36;;;;;;;1.67;0.40;;;8.90;88.80;;;;;;6295430;22;20052;-80
2023/11/20 06:37:03;;;;;;;0.77;0.40;;;8.90;99.60;;;;;;6294114;22;20116;-79
2023/11/20 06:39:30;;;;;;;0.40;0.40;;;8.90;95.80;;;;;;6294928;22;20046;-79
2023/11/20 06:41:57;;;;;;;0.63;0.40;;;9.00;97.70;;;;;;6295435;22;20019;-79
2023/11/20 06:44:24;;;;;;;0.88;0.40;;;9.00;92.30;;;;;;6246343;22;20343;-77
2023/11/20 06:46:52;;;;;;;0.95;0.65;;;9.10;28.40;;;;;;6299848;22;20031;-79
2023/11/20 06:49:19;;;;;;;1.65;0.47;;;9.10;1.00;;;;;;6271969;22;20050;-80
2023/11/20 06:51:46;;;;;;;0.60;0.35;;;9.20;1.00;;;;;;6270210;22;20074;-77
2023/11/20 06:54:13;;;;;;;0.90;0.30;;;9.30;1.00;;;;;;6270809;22;20330;-77
2023/11/20 06:56:40;;;;;;;1.48;0.50;;;9.30;3.10;;;;;;6246722;22;20437;-78
2023/11/20 06:59:07;;;;;;;1.55;0.55;;;9.30;1.00;;;;;;6272116;22;20019;-77
2023/11/20 07:01:33;;;;;;;0.98;0.63;;;9.30;1.00;;;;;;6271666;22;20019;-77
2023/11/20 07:04:01;;;;;;;0.50;0.35;;;9.40;1.00;;;;;;6246954;22;20133;-77
2023/11/20 07:06:28;;;;;;;1.88;0.60;;;9.40;1.00;;;;;;6268984;22;20042;-79
2023/11/20 07:08:55;;;;;;;1.30;0.43;;;9.50;1.00;;;;;;6242060;22;20027;-77
2023/11/20 07:11:22;;;;;;;1.48;0.50;;;9.50;1.00;;;;;;6295149;22;20019;-77
2023/11/20 07:13:49;;;;;;;1.73;0.40;;;9.60;1.00;;;;;;6244443;22;20437;-82
2023/11/20 07:16:16;;;;;;;1.42;0.43;;;9.60;1.00;;;;;;6269856;22;20034;-76
2023/11/20 07:18:43;;;;;;;2.13;0.82;;;9.60;1.00;;;;;;6297158;22;20083;-77
2023/11/20 07:21:10;;;;;;;1.70;0.50;;;9.60;1.00;;;;;;6296036;22;20404;-77
2023/11/20 07:23:37;;;;;;;0.63;0.43;;;9.70;1.00;;;;;;6269559;22;20405;-77
2023/11/20 07:26:04;;;;;;;1.95;0.40;;;9.70;1.00;;;;;;6269034;22;20019;-77
2023/11/20 07:28:31;;;;;;;0.88;0.40;;;9.70;35.60;;;;;;6244757;22;20457;-77
2023/11/20 07:30:57;;;;;;;1.55;0.47;;;9.70;99.90;;;;;;6298073;22;20041;-78
2023/11/20 07:33:24;;;;;;;0.68;0.47;;;9.70;99.90;;;;;;6247037;22;20055;-76
2023/11/20 07:35:51;;;;;;;0.30;0.30;;;9.70;99.90;;;;;;6298568;22;20018;-76
2023/11/20 07:38:18;;;;;;;0.65;0.30;;;9.70;1.00;;;;;;6245377;22;20020;-77
2023/11/20 07:40:46;;;;;;;1.17;0.40;;;9.70;1.00;;;;;;6271295;22;20095;-76
2023/11/20 07:43:13;;;;;;;0.65;0.38;;;9.70;99.90;;;;;;6271319;22;20026;-76
2023/11/20 07:45:40;;;;;;;0.75;0.43;;;9.70;99.90;;;;;;6270615;22;20453;-76
2023/11/20 07:48:07;;;;;;;0.30;0.30;;;9.70;99.90;;;;;;6298220;22;20019;-77
2023/11/20 07:50:35;;;;;;;1.25;0.38;;;9.70;99.90;;;;;;6271346;22;20102;-79
2023/11/20 07:53:04;;;;;;;1.00;0.50;;;9.70;1.00;;;;;;6213550;22;20023;-77
2023/11/20 07:55:31;;;;;;;1.13;0.43;;;9.80;1.00;;;;;;6293527;22;20077;-76
2023/11/20 07:57:58;;;;;;;0.43;0.22;;;9.80;10.20;;;;;;6296623;22;20031;-77
2023/11/20 08:00:25;;;;;;;0.88;0.40;;;9.80;1.00;;;;;;6271939;22;20042;-83
2023/11/20 08:02:53;;;;;;;0.43;0.30;;;9.80;24.10;;;;;;6267210;22;20023;-79
2023/11/20 08:05:20;;;;;;;0.10;0.10;;;9.80;46.80;;;;;;6292801;22;20023;-79
2023/11/20 08:07:48;;;;;;;0.75;0.28;;;9.90;99.90;;;;;;6216912;22;20023;-79
2023/11/20 08:10:18;;;;;;;0.10;0.05;;;9.90;99.90;;;;;;6269423;22;20023;-78
2023/11/20 08:12:53;;;;;;;0.60;0.20;;;9.90;99.90;;;;;;6243571;22;20022;-80
2023/11/20 08:15:20;;;;;;;0.17;0.10;;;9.90;99.90;;;;;;6297146;22;20094;-78
2023/11/20 08:17:47;;;;;;;0.32;0.22;;;9.90;99.90;;;;;;6296778;22;20027;-80
2023/11/20 08:20:16;;;;;;;0.10;0.10;;;9.90;17.10;;;;;;6244394;22;20015;-78
2023/11/20 08:22:43;;;;;;;0.93;0.40;;;9.90;99.90;;;;;;6218600;22;20036;-79
2023/11/20 08:25:10;;;;;;;0.65;0.30;;;9.90;99.90;;;;;;6269766;22;20019;-78
2023/11/20 08:27:40;;;;;;;0.20;0.20;;;9.90;1.00;;;;;;6296178;22;20094;-78
2023/11/20 08:30:10;;;;;;;0.20;0.20;;;9.90;99.90;;;;;;6296977;22;20476;-79
2023/11/20 08:32:37;;;;;;;1.02;0.30;;;9.90;99.90;;;;;;6269431;22;20034;-79
2023/11/20 08:35:05;;;;;;;1.10;0.30;;;9.90;1.00;;;;;;6296787;22;20015;-79
2023/11/20 08:37:32;;;;;;;0.13;0.10;;;9.90;1.00;;;;;;6244066;22;20023;-75
2023/11/20 08:39:59;;;;;;;0.20;0.20;;;9.90;1.00;;;;;;6297321;22;20100;-75
2023/11/20 08:42:26;;;;;;;0.10;0.10;;;9.90;1.00;;;;;;6296281;22;20832;-75
2023/11/20 08:44:53;;;;;;;0.95;0.10;;;9.90;1.00;;;;;;6297204;22;20023;-76
2023/11/20 08:47:20;;;;;;;1.35;0.20;;;9.80;1.00;;;;;;6270419;22;20041;-76
2023/11/20 08:49:47;;;;;;;0.30;0.20;;;9.80;89.40;;;;;;6270255;22;20020;-75
2023/11/20 08:52:14;;;;;;;0.88;0.57;;;9.80;99.90;;;;;;6235998;22;1250174;-77
2023/11/20 08:54:43;;;;;;;0.40;0.25;;;9.80;99.90;;;;;;6275090;22;20579;-75
2023/11/20 08:57:10;;;;;;;0.60;0.30;;;9.80;1.00;;;;;;6245094;22;20411;-76
2023/11/20 08:59:37;;;;;;;0.17;0.17;;;9.90;1.00;;;;;;6245832;22;20033;-75
2023/11/20 09:02:04;;;;;;;0.38;0.38;;;9.90;84.30;;;;;;6294003;22;20011;-76
2023/11/20 09:04:31;;;;;;;0.35;0.20;;;10.00;99.90;;;;;;6266911;22;20023;-78
2023/11/20 09:06:57;;;;;;;0.20;0.20;;;10.00;99.90;;;;;;6295392;22;20076;-76
2023/11/20 09:09:25;;;;;;;0.10;0.10;;;10.00;99.90;;;;;;6244342;22;20099;-76
2023/11/20 09:11:54;;;;;;;0.28;0.20;;;10.10;99.90;;;;;;6270761;22;20181;-76
2023/11/20 09:14:21;;;;;;;0.10;0.10;;;10.20;91.50;;;;;;6245780;22;20095;-76
2023/11/20 09:16:48;;;;;;;0.32;0.22;;;10.20;99.90;;;;;;6245253;22;20030;-76
2023/11/20 09:19:15;;;;;;;0.45;0.40;;;10.20;91.50;;;;;;6271023;22;20412;-76
2023/11/20 09:21:42;;;;;;;0.75;0.32;;;10.20;99.90;;;;;;6244544;22;20072;-76
2023/11/20 09:24:09;;;;;;;0.50;0.30;;;10.30;99.90;;;;;;6293709;22;20057;-76
2023/11/20 09:26:36;;;;;;;0.52;0.30;;;10.30;99.90;;;;;;6265042;22;20281;-76
2023/11/20 09:29:06;;;;;;;1.02;0.20;;;10.40;99.90;;;;;;6295680;22;20169;-76
2023/11/20 09:31:36;;;;;;;0.60;0.57;;;10.50;99.90;;;;;;6221093;22;20015;-76
2023/11/20 09:34:04;;;;;;;0.20;0.20;;;10.50;99.90;;;;;;6297872;22;20027;-76
2023/11/20 09:36:31;;;;;;;0.20;0.20;;;10.60;1.00;;;;;;6270299;22;20012;-76
2023/11/20 09:38:58;;;;;;;0.10;0.10;;;10.60;1.00;;;;;;6246460;22;20027;-76
2023/11/20 09:41:26;;;;;;;0.13;0.13;;;10.60;99.90;;;;;;6221860;22;20077;-76
2023/11/20 09:43:53;;;;;;;0.20;0.20;;;10.70;99.90;;;;;;6222813;22;20023;-76
2023/11/20 09:46:20;;;;;;;0.32;0.30;;;10.70;99.90;;;;;;6299629;22;20069;-76
2023/11/20 09:48:48;;;;;;;0.20;0.15;;;10.70;99.90;;;;;;6247934;22;20101;-76
2023/11/20 09:51:16;;;;;;;0.50;0.30;;;10.80;1.00;;;;;;6246001;22;20213;-76
2023/11/20 09:53:43;;;;;;;0.22;0.10;;;10.90;1.00;;;;;;6269534;22;20131;-76
2023/11/20 09:56:10;;;;;;;0.13;0.10;;;11.10;99.90;;;;;;6295267;22;20099;-76
2023/11/20 09:58:40;;;;;;;0.75;0.20;;;11.10;99.90;;;;;;6269566;22;20377;-76
2023/11/20 10:01:10;;;;;;;0.20;0.20;;;11.20;1.00;;;;;;6222203;22;20043;-74
2023/11/20 10:03:42;;;;;;;0.30;0.20;;;11.20;1.00;;;;;;6269288;22;20127;-79
2023/11/20 10:06:11;;;;;;;0.10;0.10;;;11.30;1.00;;;;;;6294010;22;20520;-79
2023/11/20 10:08:41;;;;;;;0.28;0.28;;;11.30;1.00;;;;;;6220049;22;20055;-79
2023/11/20 10:11:08;;;;;;;0.20;0.13;;;11.30;11.60;;;;;;6241117;22;20031;-78
2023/11/20 10:13:35;;;;;;;0.20;0.20;;;11.40;2.80;;;;;;6243243;22;20023;-79
2023/11/20 10:16:04;;;;;;;0.38;0.20;;;11.40;54.20;;;;;;6243980;22;20354;-79
2023/11/20 10:18:32;;;;;;;0.47;0.20;;;11.40;68.20;;;;;;6221541;22;20102;-79
2023/11/20 10:21:01;;;;;;;0.30;0.30;;;11.40;1.00;;;;;;6298409;22;20031;-78
2023/11/20 10:23:28;;;;;;;0.20;0.20;;;11.40;1.00;;;;;;6220026;22;20023;-78
2023/11/20 10:25:56;;;;;;;0.70;0.30;;;11.40;1.00;;;;;;6268231;22;20160;-77
2023/11/20 10:28:23;;;;;;;0.43;0.30;;;11.40;1.00;;;;;;6218233;22;20023;-77
2023/11/20 10:30:50;;;;;;;0.38;0.32;;;11.40;1.00;;;;;;6247811;22;20027;-77
2023/11/20 10:33:21;;;;;;;0.93;0.43;;;11.50;1.00;;;;;;6246709;22;20445;-77
2023/11/20 10:35:48;;;;;;;0.45;0.30;;;11.50;1.00;;;;;;6299957;22;20037;-77
2023/11/20 10:38:15;;;;;;;1.58;0.65;;;11.40;51.50;;;;;;6271021;22;20019;-77
2023/11/20 10:40:48;;;;;;;1.27;0.50;;;11.40;1.00;;;;;;6298997;22;20016;-77
2023/11/20 10:43:15;;;;;;;0.45;0.30;;;11.40;99.90;;;;;;6273686;22;20078;-77
2023/11/20 10:45:43;;;;;;;0.63;0.40;;;11.40;1.00;;;;;;6272758;22;20016;-77
2023/11/20 10:48:11;;;;;;;1.33;0.50;;;11.40;1.00;;;;;;6272155;22;20106;-77
2023/11/20 10:50:39;;;;;;;0.52;0.30;;;11.40;99.90;;;;;;6272387;22;20015;-77
2023/11/20 10:53:06;;;;;;;1.50;0.40;;;11.40;99.90;;;;;;6244299;22;20116;-77
2023/11/20 10:55:50;;;;;;;0.73;0.50;;;11.50;99.90;;;;;;6298479;22;20022;-77
2023/11/20 10:58:17;;;;;;;0.82;0.47;;;11.60;1.00;;;;;;6273093;22;20037;-77
2023/11/20 11:00:45;;;;;;;1.35;0.63;;;11.60;99.90;;;;;;6299686;22;20027;-77
2023/11/20 11:03:14;;;;;;;1.75;0.50;;;11.70;1.00;;;;;;6247399;22;20078;-77
2023/11/20 11:05:46;;;;;;;1.00;0.35;;;11.80;1.00;;;;;;6273718;22;20027;-77
2023/11/20 11:08:14;;;;;;;1.02;0.40;;;11.80;1.00;;;;;;6270065;22;20050;-77
2023/11/20 11:10:42;;;;;;;0.88;0.50;;;11.90;1.00;;;;;;6246627;22;20026;-77
2023/11/20 11:13:09;;;;;;;1.58;0.82;;;11.80;99.90;;;;;;6271311;22;20602;-77
2023/11/20 11:15:36;;;;;;;1.17;0.65;;;11.80;99.90;;;;;;6299827;22;20022;-78
2023/11/20 11:18:12;;;;;;;1.45;0.45;;;11.70;99.90;;;;;;6271685;22;20030;-78
2023/11/20 11:20:52;;;;;;;0.88;0.50;;;11.70;99.90;;;;;;6248549;22;20023;-78
2023/11/20 11:23:24;;;;;;;0.70;0.30;;;11.80;99.90;;;;;;6243694;22;20057;-78
2023/11/20 11:26:17;;;;;;;0.55;0.40;;;11.90;51.90;;;;;;6268605;22;20084;-79
2023/11/20 11:28:48;;;;;;;0.30;0.30;;;12.00;1.00;;;;;;6269196;22;20023;-79
2023/11/20 11:31:15;;;;;;;1.13;0.40;;;12.10;1.00;;;;;;6298954;22;20432;-79
2023/11/20 11:34:23;;;;;;;0.30;0.30;;;12.00;1.00;;;;;;6299236;22;20034;-79
2023/11/20 11:37:19;;;;;;;0.55;0.40;;;12.00;1.00;;;;;;6220199;22;20037;-79
2023/11/20 11:40:26;;;;;;;1.38;0.52;;;12.00;1.00;;;;;;6244843;22;20454;-78
2023/11/20 11:42:56;;;;;;;1.75;0.75;;;12.00;1.00;;;;;;6270939;22;20026;-77
2023/11/20 11:45:26;;;;;;;1.48;0.60;;;12.10;1.00;;;;;;6268379;22;20015;-78
2023/11/20 11:47:53;;;;;;;1.15;0.60;;;12.20;99.90;;;;;;6243294;22;20038;-78
2023/11/20 11:50:21;;;;;;;0.82;0.30;;;12.50;99.90;;;;;;6298716;22;20078;-77
2023/11/20 11:52:48;;;;;;;1.35;0.45;;;12.60;99.90;;;;;;6295597;22;20035;-77
2023/11/20 11:55:16;;;;;;;1.60;0.82;;;12.70;99.90;;;;;;6244202;22;20312;-78
2023/11/20 11:57:43;;;;;;;2.38;1.10;;;12.60;99.90;;;;;;6294379;22;20023;-78
2023/11/20 12:00:14;;;;;;;2.83;1.00;;;12.50;99.90;;;;;;6294313;22;20518;-78
2023/11/20 12:03:01;;;;;;;1.52;1.00;;;12.50;99.90;;;;;;6266884;22;20053;-78
2023/11/20 12:05:29;;;;;;;1.75;0.90;;;12.50;99.90;;;;;;6267699;22;20031;-77
2023/11/20 12:08:01;;;;;;;2.15;0.75;;;12.50;99.90;;;;;;6266381;22;20387;-77
2023/11/20 12:10:41;;;;;;;1.30;0.85;;;12.60;99.90;;;;;;6267460;22;20027;-78
2023/11/20 12:13:12;;;;;;;2.90;0.93;;;12.70;99.90;;;;;;6266582;22;20062;-79
2023/11/20 12:15:42;;;;;;;0.82;0.45;;;12.90;99.90;;;;;;6242825;22;20799;-78
2023/11/20 12:18:28;;;;;;;1.45;0.57;;;13.00;96.70;;;;;;6294277;22;20408;-78
2023/11/20 12:20:55;;;;;;;0.95;0.52;;;13.00;87.70;;;;;;6267388;22;20089;-78
2023/11/20 12:23:35;;;;;;;1.92;0.68;;;13.00;81.00;;;;;;6294707;22;20066;-75
2023/11/20 12:26:09;;;;;;;0.88;0.40;;;12.90;71.90;;;;;;6293942;22;20019;-78
2023/11/20 12:28:38;;;;;;;1.80;0.60;;;12.80;72.60;;;;;;6294537;22;20080;-78
2023/11/20 12:31:06;;;;;;;2.25;1.10;;;12.80;85.60;;;;;;6294210;22;20092;-77
2023/11/20 12:33:33;;;;;;;1.75;0.90;;;12.70;69.80;;;;;;6241763;22;20102;-78
2023/11/20 12:36:00;;;;;;;2.47;0.75;;;12.60;73.40;;;;;;6240059;22;20019;-78
2023/11/20 12:38:32;;;;;;;2.55;1.15;;;12.50;73.40;;;;;;6267073;22;20027;-78
2023/11/20 12:41:03;;;;;;;2.28;0.70;;;12.50;66.50;;;;;;6293560;22;20015;-78
2023/11/20 12:43:33;;;;;;;1.15;0.73;;;12.50;69.20;;;;;;6242817;22;20027;-78
2023/11/20 12:46:06;;;;;;;2.15;0.85;;;12.50;58.90;;;;;;6217190;22;20405;-77
2023/11/20 12:48:36;;;;;;;1.30;0.55;;;12.50;62.70;;;;;;6268652;22;20030;-78
2023/11/20 12:51:05;;;;;;;1.23;0.50;;;12.60;65.30;;;;;;6241001;22;20027;-78
2023/11/20 12:53:34;;;;;;;1.08;0.50;;;12.70;58.20;;;;;;6265977;22;20102;-77
2023/11/20 12:56:05;;;;;;;1.67;0.82;;;12.70;53.50;;;;;;6266358;22;20345;-78
2023/11/20 12:58:32;;;;;;;2.22;0.70;;;12.60;49.30;;;;;;6242145;22;20621;-78
2023/11/20 13:01:04;;;;;;;0.95;0.50;;;12.50;52.80;;;;;;6266211;22;20027;-77